Wenona, Illinois
Current Conditions -  °F | °C
As of 7:30 PM on Monday 24 Nov 2014 (Local Time) from KC75 Reporting Station
Overcast Overcast  
Wind Chill: 19°   Ceiling: 2400
Heat Index: 28°   Visibility: 10mi
Dew Point: 23°   Wind: 8mph
Humidity: 83%   Direction: 270°W
Pressure: 29.81"   Gusts: 17mph
Location:  41.05°N, 89.05°W
Report Text: KC75 250130Z AUTO 27007G15KT 10SM OVC024 M02/M05 A2981 RMK AO2 T10251050
Loading
Personal Weather Stations






























Interactive Weather Map New forecast layout! Learn more

10-Day Weather Forecast

Advertisements
Track Severe Weather on mobile